sensor_id;sensor_type;location;lat;lon;timestamp;P1;durP1;ratioP1;P2;durP2;ratioP2
78368;SDS011;71113;43.092;-89.268;2024-01-15T00:00:42;15.70;;;5.45;;
78368;SDS011;71113;43.092;-89.268;2024-01-15T00:03:08;15.68;;;4.93;;
78368;SDS011;71113;43.092;-89.268;2024-01-15T00:05:35;11.65;;;4.30;;
78368;SDS011;71113;43.092;-89.268;2024-01-15T00:08:00;13.45;;;4.95;;
78368;SDS011;71113;43.092;-89.268;2024-01-15T00:10:26;11.85;;;4.30;;
78368;SDS011;71113;43.092;-89.268;2024-01-15T00:12:52;9.57;;;3.95;;
78368;SDS011;71113;43.092;-89.268;2024-01-15T00:15:18;10.90;;;3.67;;
78368;SDS011;71113;43.092;-89.268;2024-01-15T00:17:45;8.45;;;3.53;;
78368;SDS011;71113;43.092;-89.268;2024-01-15T00:20:11;8.73;;;3.30;;
78368;SDS011;71113;43.092;-89.268;2024-01-15T00:22:37;9.00;;;3.03;;
78368;SDS011;71113;43.092;-89.268;2024-01-15T00:25:03;7.57;;;3.03;;
78368;SDS011;71113;43.092;-89.268;2024-01-15T00:27:29;7.47;;;3.20;;
78368;SDS011;71113;43.092;-89.268;2024-01-15T00:29:55;7.38;;;2.70;;
78368;SDS011;71113;43.092;-89.268;2024-01-15T00:32:22;7.72;;;2.88;;
78368;SDS011;71113;43.092;-89.268;2024-01-15T00:34:48;7.90;;;2.38;;
78368;SDS011;71113;43.092;-89.268;2024-01-15T00:37:15;4.60;;;2.38;;
78368;SDS011;71113;43.092;-89.268;2024-01-15T00:39:41;5.40;;;2.40;;
78368;SDS011;71113;43.092;-89.268;2024-01-15T00:42:07;135.63;;;87.35;;
78368;SDS011;71113;43.092;-89.268;2024-01-15T00:44:33;30.23;;;16.42;;
78368;SDS011;71113;43.092;-89.268;2024-01-15T00:46:59;40.38;;;21.20;;
78368;SDS011;71113;43.092;-89.268;2024-01-15T00:49:27;38.08;;;19.75;;
78368;SDS011;71113;43.092;-89.268;2024-01-15T00:51:53;33.65;;;17.67;;
78368;SDS011;71113;43.092;-89.268;2024-01-15T00:54:18;32.15;;;17.13;;
78368;SDS011;71113;43.092;-89.268;2024-01-15T00:56:44;31.27;;;16.67;;
78368;SDS011;71113;43.092;-89.268;2024-01-15T00:59:10;29.25;;;15.85;;
78368;SDS011;71113;43.092;-89.268;2024-01-15T01:01:40;27.15;;;14.60;;
78368;SDS011;71113;43.092;-89.268;2024-01-15T01:04:09;25.23;;;13.57;;
78368;SDS011;71113;43.092;-89.268;2024-01-15T01:06:35;24.13;;;13.25;;
78368;SDS011;71113;43.092;-89.268;2024-01-15T01:09:01;25.60;;;13.48;;
78368;SDS011;71113;43.092;-89.268;2024-01-15T01:11:27;22.00;;;12.20;;
78368;SDS011;71113;43.092;-89.268;2024-01-15T01:13:53;23.15;;;12.13;;
78368;SDS011;71113;43.092;-89.268;2024-01-15T01:16:21;21.73;;;11.48;;
78368;SDS011;71113;43.092;-89.268;2024-01-15T01:18:47;23.83;;;11.25;;
78368;SDS011;71113;43.092;-89.268;2024-01-15T01:21:13;19.13;;;10.02;;
78368;SDS011;71113;43.092;-89.268;2024-01-15T01:23:40;18.02;;;9.75;;
78368;SDS011;71113;43.092;-89.268;2024-01-15T01:26:06;18.88;;;9.90;;
78368;SDS011;71113;43.092;-89.268;2024-01-15T01:28:32;19.48;;;9.82;;
78368;SDS011;71113;43.092;-89.268;2024-01-15T01:30:59;14.65;;;8.57;;
78368;SDS011;71113;43.092;-89.268;2024-01-15T01:33:25;14.57;;;7.63;;
78368;SDS011;71113;43.092;-89.268;2024-01-15T01:35:51;14.52;;;8.25;;
78368;SDS011;71113;43.092;-89.268;2024-01-15T01:38:18;14.32;;;7.97;;
78368;SDS011;71113;43.092;-89.268;2024-01-15T01:40:45;13.70;;;7.63;;
78368;SDS011;71113;43.092;-89.268;2024-01-15T01:43:12;12.82;;;7.03;;
78368;SDS011;71113;43.092;-89.268;2024-01-15T01:45:38;11.68;;;6.47;;
78368;SDS011;71113;43.092;-89.268;2024-01-15T01:48:05;14.20;;;7.05;;
78368;SDS011;71113;43.092;-89.268;2024-01-15T01:50:31;10.48;;;6.10;;
78368;SDS011;71113;43.092;-89.268;2024-01-15T01:52:59;11.45;;;5.88;;
78368;SDS011;71113;43.092;-89.268;2024-01-15T01:55:29;10.38;;;5.43;;
78368;SDS011;71113;43.092;-89.268;2024-01-15T01:57:58;9.68;;;5.25;;
78368;SDS011;71113;43.092;-89.268;2024-01-15T02:00:26;9.43;;;4.95;;
78368;SDS011;71113;43.092;-89.268;2024-01-15T02:02:53;9.98;;;4.70;;
78368;SDS011;71113;43.092;-89.268;2024-01-15T02:05:21;7.90;;;4.10;;
78368;SDS011;71113;43.092;-89.268;2024-01-15T02:07:49;8.85;;;3.90;;
78368;SDS011;71113;43.092;-89.268;2024-01-15T02:10:16;7.68;;;3.83;;
78368;SDS011;71113;43.092;-89.268;2024-01-15T02:12:43;568.15;;;317.70;;
78368;SDS011;71113;43.092;-89.268;2024-01-15T02:15:10;632.85;;;291.63;;
78368;SDS011;71113;43.092;-89.268;2024-01-15T02:17:55;202.45;;;84.22;;
78368;SDS011;71113;43.092;-89.268;2024-01-15T02:20:24;1472.45;;;576.22;;
78368;SDS011;71113;43.092;-89.268;2024-01-15T02:22:51;665.95;;;352.15;;
78368;SDS011;71113;43.092;-89.268;2024-01-15T02:25:19;471.38;;;188.40;;
78368;SDS011;71113;43.092;-89.268;2024-01-15T02:27:46;414.95;;;151.65;;
78368;SDS011;71113;43.092;-89.268;2024-01-15T02:30:13;317.92;;;114.68;;
78368;SDS011;71113;43.092;-89.268;2024-01-15T02:32:41;249.73;;;90.85;;
78368;SDS011;71113;43.092;-89.268;2024-01-15T02:35:08;416.70;;;139.27;;
78368;SDS011;71113;43.092;-89.268;2024-01-15T02:37:35;295.77;;;102.10;;
78368;SDS011;71113;43.092;-89.268;2024-01-15T02:40:01;254.90;;;87.97;;
78368;SDS011;71113;43.092;-89.268;2024-01-15T02:42:29;223.90;;;76.70;;
78368;SDS011;71113;43.092;-89.268;2024-01-15T02:44:56;214.60;;;76.38;;
78368;SDS011;71113;43.092;-89.268;2024-01-15T02:47:22;208.65;;;76.07;;
78368;SDS011;71113;43.092;-89.268;2024-01-15T02:49:50;202.75;;;70.55;;
78368;SDS011;71113;43.092;-89.268;2024-01-15T02:52:16;200.80;;;69.32;;
78368;SDS011;71113;43.092;-89.268;2024-01-15T02:54:44;185.60;;;66.53;;
78368;SDS011;71113;43.092;-89.268;2024-01-15T02:57:10;172.40;;;63.15;;
78368;SDS011;71113;43.092;-89.268;2024-01-15T02:59:37;179.18;;;59.28;;
78368;SDS011;71113;43.092;-89.268;2024-01-15T03:02:04;174.82;;;58.67;;
78368;SDS011;71113;43.092;-89.268;2024-01-15T03:04:31;163.38;;;57.63;;
78368;SDS011;71113;43.092;-89.268;2024-01-15T03:06:57;153.45;;;54.08;;
78368;SDS011;71113;43.092;-89.268;2024-01-15T03:09:25;147.23;;;53.45;;
78368;SDS011;71113;43.092;-89.268;2024-01-15T03:11:51;145.23;;;51.58;;
78368;SDS011;71113;43.092;-89.268;2024-01-15T03:14:17;144.25;;;51.55;;
78368;SDS011;71113;43.092;-89.268;2024-01-15T03:16:45;134.23;;;48.88;;
78368;SDS011;71113;43.092;-89.268;2024-01-15T03:19:11;129.23;;;43.22;;
78368;SDS011;71113;43.092;-89.268;2024-01-15T03:21:37;127.68;;;43.03;;
78368;SDS011;71113;43.092;-89.268;2024-01-15T03:24:03;104.45;;;36.60;;
78368;SDS011;71113;43.092;-89.268;2024-01-15T03:26:30;93.75;;;33.83;;
78368;SDS011;71113;43.092;-89.268;2024-01-15T03:28:56;90.45;;;33.08;;
78368;SDS011;71113;43.092;-89.268;2024-01-15T03:31:22;81.13;;;29.02;;
78368;SDS011;71113;43.092;-89.268;2024-01-15T03:33:49;76.18;;;27.38;;
78368;SDS011;71113;43.092;-89.268;2024-01-15T03:36:15;67.57;;;23.77;;
78368;SDS011;71113;43.092;-89.268;2024-01-15T03:38:41;63.85;;;22.83;;
78368;SDS011;71113;43.092;-89.268;2024-01-15T03:41:07;59.85;;;22.23;;
78368;SDS011;71113;43.092;-89.268;2024-01-15T03:43:33;57.75;;;20.55;;
78368;SDS011;71113;43.092;-89.268;2024-01-15T03:45:59;61.88;;;21.30;;
78368;SDS011;71113;43.092;-89.268;2024-01-15T03:48:27;59.15;;;20.88;;
78368;SDS011;71113;43.092;-89.268;2024-01-15T03:50:53;54.08;;;19.25;;
78368;SDS011;71113;43.092;-89.268;2024-01-15T03:53:19;50.17;;;18.50;;
78368;SDS011;71113;43.092;-89.268;2024-01-15T03:55:45;52.33;;;18.77;;
78368;SDS011;71113;43.092;-89.268;2024-01-15T03:58:12;43.88;;;15.48;;
78368;SDS011;71113;43.092;-89.268;2024-01-15T04:00:40;38.00;;;13.48;;
78368;SDS011;71113;43.092;-89.268;2024-01-15T04:03:06;38.63;;;13.52;;
78368;SDS011;71113;43.092;-89.268;2024-01-15T04:05:32;36.28;;;13.20;;
78368;SDS011;71113;43.092;-89.268;2024-01-15T04:07:58;35.58;;;12.95;;
78368;SDS011;71113;43.092;-89.268;2024-01-15T04:10:24;33.55;;;11.65;;
78368;SDS011;71113;43.092;-89.268;2024-01-15T04:12:50;32.53;;;11.32;;
78368;SDS011;71113;43.092;-89.268;2024-01-15T04:15:16;31.08;;;11.00;;
78368;SDS011;71113;43.092;-89.268;2024-01-15T04:17:42;29.67;;;10.80;;
78368;SDS011;71113;43.092;-89.268;2024-01-15T04:20:08;30.50;;;11.63;;
78368;SDS011;71113;43.092;-89.268;2024-01-15T04:22:35;25.13;;;9.05;;
78368;SDS011;71113;43.092;-89.268;2024-01-15T04:25:01;24.55;;;8.80;;
78368;SDS011;71113;43.092;-89.268;2024-01-15T04:27:28;27.83;;;9.77;;
78368;SDS011;71113;43.092;-89.268;2024-01-15T04:29:54;27.00;;;9.20;;
78368;SDS011;71113;43.092;-89.268;2024-01-15T04:32:20;25.08;;;9.32;;
78368;SDS011;71113;43.092;-89.268;2024-01-15T04:34:46;24.40;;;8.18;;
78368;SDS011;71113;43.092;-89.268;2024-01-15T04:37:15;20.83;;;7.55;;
78368;SDS011;71113;43.092;-89.268;2024-01-15T04:39:41;19.88;;;8.15;;
78368;SDS011;71113;43.092;-89.268;2024-01-15T04:42:07;19.48;;;7.30;;
78368;SDS011;71113;43.092;-89.268;2024-01-15T04:44:33;19.40;;;7.07;;
78368;SDS011;71113;43.092;-89.268;2024-01-15T04:46:59;21.45;;;7.15;;
78368;SDS011;71113;43.092;-89.268;2024-01-15T04:49:25;17.23;;;6.20;;
78368;SDS011;71113;43.092;-89.268;2024-01-15T04:51:52;20.05;;;6.97;;
78368;SDS011;71113;43.092;-89.268;2024-01-15T04:54:18;19.25;;;6.57;;
78368;SDS011;71113;43.092;-89.268;2024-01-15T04:56:45;13.98;;;5.22;;
78368;SDS011;71113;43.092;-89.268;2024-01-15T04:59:11;17.30;;;6.18;;
78368;SDS011;71113;43.092;-89.268;2024-01-15T05:01:37;14.88;;;5.30;;
78368;SDS011;71113;43.092;-89.268;2024-01-15T05:04:03;15.20;;;5.38;;
78368;SDS011;71113;43.092;-89.268;2024-01-15T05:06:29;11.73;;;5.00;;
78368;SDS011;71113;43.092;-89.268;2024-01-15T05:08:55;11.93;;;4.47;;
78368;SDS011;71113;43.092;-89.268;2024-01-15T05:11:21;12.70;;;4.60;;
78368;SDS011;71113;43.092;-89.268;2024-01-15T05:13:47;10.68;;;4.18;;
78368;SDS011;71113;43.092;-89.268;2024-01-15T05:16:12;10.63;;;4.97;;
78368;SDS011;71113;43.092;-89.268;2024-01-15T05:18:38;11.52;;;4.50;;
78368;SDS011;71113;43.092;-89.268;2024-01-15T05:21:04;10.48;;;4.25;;
78368;SDS011;71113;43.092;-89.268;2024-01-15T05:23:34;13.77;;;4.60;;
78368;SDS011;71113;43.092;-89.268;2024-01-15T05:26:00;11.27;;;3.85;;
78368;SDS011;71113;43.092;-89.268;2024-01-15T05:28:25;9.13;;;3.80;;
78368;SDS011;71113;43.092;-89.268;2024-01-15T05:30:51;10.70;;;3.67;;
78368;SDS011;71113;43.092;-89.268;2024-01-15T05:33:17;10.38;;;3.70;;
78368;SDS011;71113;43.092;-89.268;2024-01-15T05:35:43;8.88;;;3.55;;
78368;SDS011;71113;43.092;-89.268;2024-01-15T05:38:09;8.85;;;3.25;;
78368;SDS011;71113;43.092;-89.268;2024-01-15T05:40:35;8.20;;;3.47;;
78368;SDS011;71113;43.092;-89.268;2024-01-15T05:43:01;5.88;;;2.97;;
78368;SDS011;71113;43.092;-89.268;2024-01-15T05:45:27;7.38;;;2.70;;
78368;SDS011;71113;43.092;-89.268;2024-01-15T05:47:53;6.72;;;2.90;;
78368;SDS011;71113;43.092;-89.268;2024-01-15T05:50:19;5.47;;;2.28;;
78368;SDS011;71113;43.092;-89.268;2024-01-15T05:52:44;5.45;;;2.30;;
78368;SDS011;71113;43.092;-89.268;2024-01-15T05:55:10;5.47;;;2.53;;
78368;SDS011;71113;43.092;-89.268;2024-01-15T05:57:36;7.10;;;2.90;;
78368;SDS011;71113;43.092;-89.268;2024-01-15T06:00:03;7.40;;;2.50;;
78368;SDS011;71113;43.092;-89.268;2024-01-15T06:02:30;6.25;;;2.85;;
78368;SDS011;71113;43.092;-89.268;2024-01-15T06:04:55;5.55;;;2.28;;
78368;SDS011;71113;43.092;-89.268;2024-01-15T06:07:22;5.03;;;2.03;;
78368;SDS011;71113;43.092;-89.268;2024-01-15T06:09:48;5.90;;;1.90;;
78368;SDS011;71113;43.092;-89.268;2024-01-15T06:12:14;5.20;;;2.28;;
78368;SDS011;71113;43.092;-89.268;2024-01-15T06:14:40;5.20;;;2.03;;
78368;SDS011;71113;43.092;-89.268;2024-01-15T06:17:07;5.57;;;2.28;;
78368;SDS011;71113;43.092;-89.268;2024-01-15T06:19:33;5.43;;;2.00;;
78368;SDS011;71113;43.092;-89.268;2024-01-15T06:21:59;6.13;;;1.80;;
78368;SDS011;71113;43.092;-89.268;2024-01-15T06:24:25;4.40;;;1.83;;
78368;SDS011;71113;43.092;-89.268;2024-01-15T06:26:51;3.63;;;1.70;;
78368;SDS011;71113;43.092;-89.268;2024-01-15T06:29:17;3.58;;;1.85;;
78368;SDS011;71113;43.092;-89.268;2024-01-15T06:31:43;3.10;;;1.52;;
78368;SDS011;71113;43.092;-89.268;2024-01-15T06:34:09;4.05;;;1.63;;
78368;SDS011;71113;43.092;-89.268;2024-01-15T06:36:35;3.50;;;1.52;;
78368;SDS011;71113;43.092;-89.268;2024-01-15T06:39:00;3.63;;;1.42;;
78368;SDS011;71113;43.092;-89.268;2024-01-15T06:41:26;3.47;;;1.50;;
78368;SDS011;71113;43.092;-89.268;2024-01-15T06:43:52;3.13;;;1.42;;
78368;SDS011;71113;43.092;-89.268;2024-01-15T06:46:21;3.80;;;1.30;;
78368;SDS011;71113;43.092;-89.268;2024-01-15T06:48:48;2.97;;;1.63;;
78368;SDS011;71113;43.092;-89.268;2024-01-15T06:51:14;2.97;;;1.30;;
78368;SDS011;71113;43.092;-89.268;2024-01-15T06:53:40;2.10;;;1.15;;
78368;SDS011;71113;43.092;-89.268;2024-01-15T06:56:06;3.13;;;1.30;;
78368;SDS011;71113;43.092;-89.268;2024-01-15T06:58:32;2.70;;;1.00;;
78368;SDS011;71113;43.092;-89.268;2024-01-15T07:00:58;2.67;;;1.50;;
78368;SDS011;71113;43.092;-89.268;2024-01-15T07:03:24;2.63;;;1.20;;
78368;SDS011;71113;43.092;-89.268;2024-01-15T07:05:50;2.97;;;1.17;;
78368;SDS011;71113;43.092;-89.268;2024-01-15T07:08:16;3.85;;;1.33;;
78368;SDS011;71113;43.092;-89.268;2024-01-15T07:10:42;2.55;;;1.10;;
78368;SDS011;71113;43.092;-89.268;2024-01-15T07:13:08;2.40;;;1.08;;
78368;SDS011;71113;43.092;-89.268;2024-01-15T07:15:34;3.05;;;1.10;;
78368;SDS011;71113;43.092;-89.268;2024-01-15T07:18:00;1.42;;;0.90;;
78368;SDS011;71113;43.092;-89.268;2024-01-15T07:20:26;1.50;;;0.73;;
78368;SDS011;71113;43.092;-89.268;2024-01-15T07:22:52;1.92;;;1.15;;
78368;SDS011;71113;43.092;-89.268;2024-01-15T07:25:18;2.20;;;1.15;;
78368;SDS011;71113;43.092;-89.268;2024-01-15T07:27:43;1.83;;;1.00;;
78368;SDS011;71113;43.092;-89.268;2024-01-15T07:30:10;1.75;;;1.00;;
78368;SDS011;71113;43.092;-89.268;2024-01-15T07:32:37;3.42;;;1.23;;
78368;SDS011;71113;43.092;-89.268;2024-01-15T07:35:03;1.92;;;0.82;;
78368;SDS011;71113;43.092;-89.268;2024-01-15T07:37:30;2.78;;;0.90;;
78368;SDS011;71113;43.092;-89.268;2024-01-15T07:39:56;1.58;;;0.80;;
78368;SDS011;71113;43.092;-89.268;2024-01-15T07:42:22;2.20;;;1.15;;
78368;SDS011;71113;43.092;-89.268;2024-01-15T07:44:48;1.27;;;0.77;;
78368;SDS011;71113;43.092;-89.268;2024-01-15T07:47:13;3.53;;;1.05;;
78368;SDS011;71113;43.092;-89.268;2024-01-15T07:49:39;1.42;;;0.80;;
78368;SDS011;71113;43.092;-89.268;2024-01-15T07:52:05;1.60;;;0.90;;
78368;SDS011;71113;43.092;-89.268;2024-01-15T07:54:31;1.27;;;0.90;;
78368;SDS011;71113;43.092;-89.268;2024-01-15T07:57:01;1.63;;;0.90;;
78368;SDS011;71113;43.092;-89.268;2024-01-15T07:59:30;1.88;;;1.00;;
78368;SDS011;71113;43.092;-89.268;2024-01-15T08:01:56;1.33;;;0.63;;
78368;SDS011;71113;43.092;-89.268;2024-01-15T08:04:23;1.55;;;0.70;;
78368;SDS011;71113;43.092;-89.268;2024-01-15T08:06:49;1.33;;;0.82;;
78368;SDS011;71113;43.092;-89.268;2024-01-15T08:09:15;1.05;;;0.73;;
78368;SDS011;71113;43.092;-89.268;2024-01-15T08:11:41;1.50;;;0.90;;
78368;SDS011;71113;43.092;-89.268;2024-01-15T08:14:08;1.20;;;0.73;;
78368;SDS011;71113;43.092;-89.268;2024-01-15T08:16:35;1.38;;;0.70;;
78368;SDS011;71113;43.092;-89.268;2024-01-15T08:19:01;1.23;;;0.68;;
78368;SDS011;71113;43.092;-89.268;2024-01-15T08:21:27;2.38;;;1.00;;
78368;SDS011;71113;43.092;-89.268;2024-01-15T08:24:00;1.25;;;0.80;;
78368;SDS011;71113;43.092;-89.268;2024-01-15T08:26:27;1.13;;;0.70;;
78368;SDS011;71113;43.092;-89.268;2024-01-15T08:28:54;0.77;;;0.50;;
78368;SDS011;71113;43.092;-89.268;2024-01-15T08:31:20;1.25;;;0.70;;
78368;SDS011;71113;43.092;-89.268;2024-01-15T08:33:46;1.20;;;0.75;;
78368;SDS011;71113;43.092;-89.268;2024-01-15T08:36:12;1.38;;;0.88;;
78368;SDS011;71113;43.092;-89.268;2024-01-15T08:38:38;0.80;;;0.55;;
78368;SDS011;71113;43.092;-89.268;2024-01-15T08:41:04;1.05;;;0.75;;
78368;SDS011;71113;43.092;-89.268;2024-01-15T08:43:30;1.27;;;0.77;;
78368;SDS011;71113;43.092;-89.268;2024-01-15T08:45:56;1.33;;;0.80;;
78368;SDS011;71113;43.092;-89.268;2024-01-15T08:48:22;1.17;;;0.50;;
78368;SDS011;71113;43.092;-89.268;2024-01-15T08:50:49;0.55;;;0.52;;
78368;SDS011;71113;43.092;-89.268;2024-01-15T08:53:15;1.45;;;0.93;;
78368;SDS011;71113;43.092;-89.268;2024-01-15T08:55:42;0.80;;;0.65;;
78368;SDS011;71113;43.092;-89.268;2024-01-15T08:58:10;0.75;;;0.50;;
78368;SDS011;71113;43.092;-89.268;2024-01-15T09:00:36;0.98;;;0.80;;
78368;SDS011;71113;43.092;-89.268;2024-01-15T09:03:02;1.33;;;0.75;;
78368;SDS011;71113;43.092;-89.268;2024-01-15T09:05:28;1.77;;;0.95;;
78368;SDS011;71113;43.092;-89.268;2024-01-15T09:07:54;0.93;;;0.63;;
78368;SDS011;71113;43.092;-89.268;2024-01-15T09:10:20;1.63;;;0.88;;
78368;SDS011;71113;43.092;-89.268;2024-01-15T09:12:46;0.93;;;0.63;;
78368;SDS011;71113;43.092;-89.268;2024-01-15T09:15:12;1.08;;;0.70;;
78368;SDS011;71113;43.092;-89.268;2024-01-15T09:17:57;1.15;;;0.70;;
78368;SDS011;71113;43.092;-89.268;2024-01-15T09:20:24;1.38;;;0.80;;
78368;SDS011;71113;43.092;-89.268;2024-01-15T09:22:51;1.08;;;0.55;;
78368;SDS011;71113;43.092;-89.268;2024-01-15T09:25:17;0.57;;;0.50;;
78368;SDS011;71113;43.092;-89.268;2024-01-15T09:27:44;1.20;;;0.77;;
78368;SDS011;71113;43.092;-89.268;2024-01-15T09:30:10;1.30;;;0.68;;
78368;SDS011;71113;43.092;-89.268;2024-01-15T09:32:36;0.88;;;0.70;;
78368;SDS011;71113;43.092;-89.268;2024-01-15T09:35:02;0.70;;;0.60;;
78368;SDS011;71113;43.092;-89.268;2024-01-15T09:37:28;1.25;;;0.70;;
78368;SDS011;71113;43.092;-89.268;2024-01-15T09:39:54;0.70;;;0.47;;
78368;SDS011;71113;43.092;-89.268;2024-01-15T09:42:21;2.00;;;1.00;;
78368;SDS011;71113;43.092;-89.268;2024-01-15T09:44:50;1.23;;;0.60;;
78368;SDS011;71113;43.092;-89.268;2024-01-15T09:47:17;1.90;;;0.80;;
78368;SDS011;71113;43.092;-89.268;2024-01-15T09:49:44;0.80;;;0.63;;
78368;SDS011;71113;43.092;-89.268;2024-01-15T09:52:10;1.08;;;0.70;;
78368;SDS011;71113;43.092;-89.268;2024-01-15T09:54:37;1.08;;;0.70;;
78368;SDS011;71113;43.092;-89.268;2024-01-15T09:57:04;0.98;;;0.50;;
78368;SDS011;71113;43.092;-89.268;2024-01-15T09:59:30;1.30;;;0.75;;
78368;SDS011;71113;43.092;-89.268;2024-01-15T10:01:56;0.85;;;0.70;;
78368;SDS011;71113;43.092;-89.268;2024-01-15T10:04:24;0.90;;;0.60;;
78368;SDS011;71113;43.092;-89.268;2024-01-15T10:07:10;1.27;;;0.73;;
78368;SDS011;71113;43.092;-89.268;2024-01-15T10:09:44;1.48;;;0.70;;
78368;SDS011;71113;43.092;-89.268;2024-01-15T10:12:11;0.82;;;0.63;;
78368;SDS011;71113;43.092;-89.268;2024-01-15T10:14:38;1.13;;;0.70;;
78368;SDS011;71113;43.092;-89.268;2024-01-15T10:17:13;0.68;;;0.45;;
78368;SDS011;71113;43.092;-89.268;2024-01-15T10:19:40;0.85;;;0.70;;
78368;SDS011;71113;43.092;-89.268;2024-01-15T10:22:07;0.95;;;0.60;;
78368;SDS011;71113;43.092;-89.268;2024-01-15T10:24:35;1.00;;;0.68;;
78368;SDS011;71113;43.092;-89.268;2024-01-15T10:27:06;0.93;;;0.60;;
78368;SDS011;71113;43.092;-89.268;2024-01-15T10:29:33;1.23;;;0.65;;
78368;SDS011;71113;43.092;-89.268;2024-01-15T10:31:59;1.20;;;0.75;;
78368;SDS011;71113;43.092;-89.268;2024-01-15T10:34:26;2.00;;;0.65;;
78368;SDS011;71113;43.092;-89.268;2024-01-15T10:36:52;1.08;;;0.70;;
78368;SDS011;71113;43.092;-89.268;2024-01-15T10:39:23;0.82;;;0.45;;
78368;SDS011;71113;43.092;-89.268;2024-01-15T10:41:50;1.67;;;0.75;;
78368;SDS011;71113;43.092;-89.268;2024-01-15T10:44:16;2.25;;;0.88;;
78368;SDS011;71113;43.092;-89.268;2024-01-15T10:46:43;0.60;;;0.47;;
78368;SDS011;71113;43.092;-89.268;2024-01-15T10:49:10;1.08;;;0.75;;
78368;SDS011;71113;43.092;-89.268;2024-01-15T10:51:37;0.52;;;0.45;;
78368;SDS011;71113;43.092;-89.268;2024-01-15T10:54:04;0.98;;;0.60;;
78368;SDS011;71113;43.092;-89.268;2024-01-15T10:56:31;0.80;;;0.65;;
78368;SDS011;71113;43.092;-89.268;2024-01-15T10:58:58;0.95;;;0.60;;
78368;SDS011;71113;43.092;-89.268;2024-01-15T11:01:25;1.42;;;0.60;;
78368;SDS011;71113;43.092;-89.268;2024-01-15T11:03:51;1.52;;;0.63;;
78368;SDS011;71113;43.092;-89.268;2024-01-15T11:06:17;1.02;;;0.63;;
78368;SDS011;71113;43.092;-89.268;2024-01-15T11:08:49;1.30;;;0.70;;
78368;SDS011;71113;43.092;-89.268;2024-01-15T11:11:18;0.82;;;0.70;;
78368;SDS011;71113;43.092;-89.268;2024-01-15T11:13:46;0.73;;;0.63;;
78368;SDS011;71113;43.092;-89.268;2024-01-15T11:16:15;1.00;;;0.70;;
78368;SDS011;71113;43.092;-89.268;2024-01-15T11:19:02;0.93;;;0.73;;
78368;SDS011;71113;43.092;-89.268;2024-01-15T11:21:28;0.57;;;0.52;;
78368;SDS011;71113;43.092;-89.268;2024-01-15T11:24:00;0.80;;;0.70;;
78368;SDS011;71113;43.092;-89.268;2024-01-15T11:29:04;1.38;;;0.75;;
78368;SDS011;71113;43.092;-89.268;2024-01-15T11:34:06;0.95;;;0.60;;
78368;SDS011;71113;43.092;-89.268;2024-01-15T11:42:01;0.47;;;0.45;;
78368;SDS011;71113;43.092;-89.268;2024-01-15T11:44:29;0.75;;;0.55;;
78368;SDS011;71113;43.092;-89.268;2024-01-15T11:47:15;1.48;;;0.80;;
78368;SDS011;71113;43.092;-89.268;2024-01-15T11:52:34;1.15;;;0.93;;
78368;SDS011;71113;43.092;-89.268;2024-01-15T11:57:41;1.33;;;0.70;;
78368;SDS011;71113;43.092;-89.268;2024-01-15T12:00:13;0.60;;;0.40;;
78368;SDS011;71113;43.092;-89.268;2024-01-15T12:02:44;1.40;;;0.75;;
78368;SDS011;71113;43.092;-89.268;2024-01-15T12:05:11;1.02;;;0.80;;
78368;SDS011;71113;43.092;-89.268;2024-01-15T12:07:42;0.40;;;0.40;;
78368;SDS011;71113;43.092;-89.268;2024-01-15T12:10:12;1.02;;;0.70;;
78368;SDS011;71113;43.092;-89.268;2024-01-15T12:15:31;0.57;;;0.57;;
78368;SDS011;71113;43.092;-89.268;2024-01-15T12:17:59;0.70;;;0.60;;
78368;SDS011;71113;43.092;-89.268;2024-01-15T12:20:27;1.00;;;0.70;;
78368;SDS011;71113;43.092;-89.268;2024-01-15T12:22:54;1.13;;;0.63;;
78368;SDS011;71113;43.092;-89.268;2024-01-15T12:25:21;1.25;;;0.70;;
78368;SDS011;71113;43.092;-89.268;2024-01-15T12:27:47;0.73;;;0.60;;
78368;SDS011;71113;43.092;-89.268;2024-01-15T12:30:13;2.05;;;0.60;;
78368;SDS011;71113;43.092;-89.268;2024-01-15T12:32:40;0.95;;;0.52;;
78368;SDS011;71113;43.092;-89.268;2024-01-15T12:35:07;0.93;;;0.55;;
78368;SDS011;71113;43.092;-89.268;2024-01-15T12:37:35;1.55;;;0.60;;
78368;SDS011;71113;43.092;-89.268;2024-01-15T12:40:02;1.35;;;0.88;;
78368;SDS011;71113;43.092;-89.268;2024-01-15T12:42:32;0.88;;;0.50;;
78368;SDS011;71113;43.092;-89.268;2024-01-15T12:44:58;2.22;;;0.80;;
78368;SDS011;71113;43.092;-89.268;2024-01-15T12:47:25;0.82;;;0.60;;
78368;SDS011;71113;43.092;-89.268;2024-01-15T12:49:52;1.02;;;0.60;;
78368;SDS011;71113;43.092;-89.268;2024-01-15T12:52:20;1.30;;;0.73;;
78368;SDS011;71113;43.092;-89.268;2024-01-15T12:54:47;1.13;;;0.73;;
78368;SDS011;71113;43.092;-89.268;2024-01-15T12:57:15;1.08;;;0.70;;
78368;SDS011;71113;43.092;-89.268;2024-01-15T12:59:42;0.77;;;0.50;;
78368;SDS011;71113;43.092;-89.268;2024-01-15T13:02:10;0.90;;;0.63;;
78368;SDS011;71113;43.092;-89.268;2024-01-15T13:04:36;0.73;;;0.40;;
78368;SDS011;71113;43.092;-89.268;2024-01-15T13:07:02;0.90;;;0.63;;
78368;SDS011;71113;43.092;-89.268;2024-01-15T13:09:28;0.90;;;0.55;;
78368;SDS011;71113;43.092;-89.268;2024-01-15T13:11:55;0.90;;;0.55;;
78368;SDS011;71113;43.092;-89.268;2024-01-15T13:14:21;0.32;;;0.32;;
78368;SDS011;71113;43.092;-89.268;2024-01-15T13:16:47;1.10;;;0.68;;
78368;SDS011;71113;43.092;-89.268;2024-01-15T13:19:13;0.43;;;0.40;;
78368;SDS011;71113;43.092;-89.268;2024-01-15T13:21:42;0.95;;;0.40;;
78368;SDS011;71113;43.092;-89.268;2024-01-15T13:24:08;1.00;;;0.70;;
78368;SDS011;71113;43.092;-89.268;2024-01-15T13:26:34;1.10;;;0.70;;
78368;SDS011;71113;43.092;-89.268;2024-01-15T13:29:03;0.73;;;0.50;;
78368;SDS011;71113;43.092;-89.268;2024-01-15T13:31:30;0.85;;;0.47;;
78368;SDS011;71113;43.092;-89.268;2024-01-15T13:33:57;0.63;;;0.50;;
78368;SDS011;71113;43.092;-89.268;2024-01-15T13:36:23;0.63;;;0.60;;
78368;SDS011;71113;43.092;-89.268;2024-01-15T13:38:50;0.85;;;0.60;;
78368;SDS011;71113;43.092;-89.268;2024-01-15T13:41:16;1.25;;;0.70;;
78368;SDS011;71113;43.092;-89.268;2024-01-15T13:44:01;0.57;;;0.57;;
78368;SDS011;71113;43.092;-89.268;2024-01-15T13:46:28;0.75;;;0.50;;
78368;SDS011;71113;43.092;-89.268;2024-01-15T13:48:54;0.68;;;0.52;;
78368;SDS011;71113;43.092;-89.268;2024-01-15T13:51:23;0.70;;;0.57;;
78368;SDS011;71113;43.092;-89.268;2024-01-15T13:53:50;0.95;;;0.82;;
78368;SDS011;71113;43.092;-89.268;2024-01-15T13:56:16;1.00;;;0.70;;
78368;SDS011;71113;43.092;-89.268;2024-01-15T13:58:42;0.77;;;0.50;;
78368;SDS011;71113;43.092;-89.268;2024-01-15T14:01:08;0.57;;;0.50;;
78368;SDS011;71113;43.092;-89.268;2024-01-15T14:03:35;0.45;;;0.45;;
78368;SDS011;71113;43.092;-89.268;2024-01-15T14:06:01;1.02;;;0.60;;
78368;SDS011;71113;43.092;-89.268;2024-01-15T14:08:29;0.90;;;0.65;;
78368;SDS011;71113;43.092;-89.268;2024-01-15T14:10:54;1.17;;;0.73;;
78368;SDS011;71113;43.092;-89.268;2024-01-15T14:13:22;0.57;;;0.50;;
78368;SDS011;71113;43.092;-89.268;2024-01-15T14:15:48;0.93;;;0.50;;
78368;SDS011;71113;43.092;-89.268;2024-01-15T14:18:16;1.45;;;0.90;;
78368;SDS011;71113;43.092;-89.268;2024-01-15T14:20:42;1.23;;;0.73;;
78368;SDS011;71113;43.092;-89.268;2024-01-15T14:23:08;0.82;;;0.57;;
78368;SDS011;71113;43.092;-89.268;2024-01-15T14:25:34;0.57;;;0.50;;
78368;SDS011;71113;43.092;-89.268;2024-01-15T14:28:01;1.08;;;0.80;;
78368;SDS011;71113;43.092;-89.268;2024-01-15T14:30:27;1.20;;;0.80;;